sensor_id;sensor_type;location;lat;lon;timestamp;pressure;altitude;pressure_sealevel;temperature;humidity
11712;BME280;5912;51.034;6.984;2024-01-27T00:01:13;56805.06;;;-142.13;66.10
11712;BME280;5912;51.034;6.984;2024-01-27T00:03:38;56702.91;;;-142.13;65.73
11712;BME280;5912;51.034;6.984;2024-01-27T00:06:03;56716.91;;;-142.13;66.10
11712;BME280;5912;51.034;6.984;2024-01-27T00:08:29;56708.91;;;-142.13;66.08
11712;BME280;5912;51.034;6.984;2024-01-27T00:10:54;56702.91;;;-142.13;66.20
11712;BME280;5912;51.034;6.984;2024-01-27T00:13:19;56736.94;;;-142.13;66.02
11712;BME280;5912;51.034;6.984;2024-01-27T00:15:45;56740.97;;;-142.13;66.38
11712;BME280;5912;51.034;6.984;2024-01-27T00:18:10;56708.91;;;-142.13;66.76
11712;BME280;5912;51.034;6.984;2024-01-27T00:20:36;56740.97;;;-142.13;66.78
11712;BME280;5912;51.034;6.984;2024-01-27T00:23:02;56769.00;;;-142.13;66.43
11712;BME280;5912;51.034;6.984;2024-01-27T00:25:27;56759.00;;;-142.13;66.66
11712;BME280;5912;51.034;6.984;2024-01-27T00:27:52;56734.94;;;-142.13;66.91
11712;BME280;5912;51.034;6.984;2024-01-27T00:30:18;56769.00;;;-142.13;66.91
11712;BME280;5912;51.034;6.984;2024-01-27T00:32:46;56777.03;;;-142.13;67.13
11712;BME280;5912;51.034;6.984;2024-01-27T00:35:11;56773.00;;;-142.13;67.44
11712;BME280;5912;51.034;6.984;2024-01-27T00:37:40;56724.94;;;-142.13;66.95
11712;BME280;5912;51.034;6.984;2024-01-27T00:40:10;56742.97;;;-142.13;67.30
11712;BME280;5912;51.034;6.984;2024-01-27T00:42:36;56740.97;;;-142.13;67.04
11712;BME280;5912;51.034;6.984;2024-01-27T00:45:04;56748.97;;;-142.13;67.72
11712;BME280;5912;51.034;6.984;2024-01-27T00:47:30;56759.00;;;-142.13;67.48
11712;BME280;5912;51.034;6.984;2024-01-27T00:49:55;56781.03;;;-142.13;67.13
11712;BME280;5912;51.034;6.984;2024-01-27T00:52:20;56750.97;;;-142.13;67.47
11712;BME280;5912;51.034;6.984;2024-01-27T00:54:46;56775.03;;;-142.13;67.94
11712;BME280;5912;51.034;6.984;2024-01-27T00:57:11;56750.97;;;-142.13;68.08
11712;BME280;5912;51.034;6.984;2024-01-27T00:59:36;56771.00;;;-142.13;67.79
11712;BME280;5912;51.034;6.984;2024-01-27T01:02:02;56775.03;;;-142.13;67.98
11712;BME280;5912;51.034;6.984;2024-01-27T01:04:27;56765.00;;;-142.13;68.35
11712;BME280;5912;51.034;6.984;2024-01-27T01:06:53;56773.00;;;-142.13;67.60
11712;BME280;5912;51.034;6.984;2024-01-27T01:09:18;56752.97;;;-142.13;68.70
11712;BME280;5912;51.034;6.984;2024-01-27T01:11:43;56777.03;;;-142.13;68.66
11712;BME280;5912;51.034;6.984;2024-01-27T01:14:09;56783.03;;;-142.13;68.54
11712;BME280;5912;51.034;6.984;2024-01-27T01:16:34;56771.00;;;-142.13;68.47
11712;BME280;5912;51.034;6.984;2024-01-27T01:18:59;56813.09;;;-142.13;68.47
11712;BME280;5912;51.034;6.984;2024-01-27T01:21:24;56746.97;;;-142.13;68.84
11712;BME280;5912;51.034;6.984;2024-01-27T01:23:50;56765.00;;;-142.13;68.97
11712;BME280;5912;51.034;6.984;2024-01-27T01:26:15;56785.03;;;-142.13;69.73
11712;BME280;5912;51.034;6.984;2024-01-27T01:28:40;56765.00;;;-142.13;69.00
11712;BME280;5912;51.034;6.984;2024-01-27T01:31:07;56783.03;;;-142.13;69.16
11712;BME280;5912;51.034;6.984;2024-01-27T01:33:33;56754.97;;;-142.13;69.10
11712;BME280;5912;51.034;6.984;2024-01-27T01:35:58;56769.00;;;-142.13;68.96
11712;BME280;5912;51.034;6.984;2024-01-27T01:38:23;56789.03;;;-142.13;69.62
11712;BME280;5912;51.034;6.984;2024-01-27T01:40:49;56769.00;;;-142.13;69.56
11712;BME280;5912;51.034;6.984;2024-01-27T01:43:15;56801.06;;;-142.13;69.43
11712;BME280;5912;51.034;6.984;2024-01-27T01:45:40;56771.00;;;-142.13;69.57
11712;BME280;5912;51.034;6.984;2024-01-27T01:48:07;56775.03;;;-142.13;69.64
11712;BME280;5912;51.034;6.984;2024-01-27T01:50:33;56769.00;;;-142.13;69.85
11712;BME280;5912;51.034;6.984;2024-01-27T01:52:58;56763.00;;;-142.13;69.61
11712;BME280;5912;51.034;6.984;2024-01-27T01:55:24;56791.03;;;-142.13;70.44
11712;BME280;5912;51.034;6.984;2024-01-27T01:57:49;56797.06;;;-142.13;70.21
11712;BME280;5912;51.034;6.984;2024-01-27T02:00:15;56779.03;;;-142.13;70.09
11712;BME280;5912;51.034;6.984;2024-01-27T02:02:45;56893.22;;;-142.13;69.86
11712;BME280;5912;51.034;6.984;2024-01-27T02:05:12;56797.06;;;-142.13;70.11
11712;BME280;5912;51.034;6.984;2024-01-27T02:07:38;56785.03;;;-142.13;70.02
11712;BME280;5912;51.034;6.984;2024-01-27T02:10:05;56773.00;;;-142.13;69.95
11712;BME280;5912;51.034;6.984;2024-01-27T02:12:30;56807.06;;;-142.13;70.25
11712;BME280;5912;51.034;6.984;2024-01-27T02:14:56;56781.03;;;-142.13;70.70
11712;BME280;5912;51.034;6.984;2024-01-27T02:17:21;56783.03;;;-142.13;70.52
11712;BME280;5912;51.034;6.984;2024-01-27T02:19:47;56789.03;;;-142.13;70.48
11712;BME280;5912;51.034;6.984;2024-01-27T02:22:12;56797.06;;;-142.13;70.59
11712;BME280;5912;51.034;6.984;2024-01-27T02:24:37;56773.00;;;-142.13;71.12
11712;BME280;5912;51.034;6.984;2024-01-27T02:27:03;56799.06;;;-142.13;70.61
11712;BME280;5912;51.034;6.984;2024-01-27T02:29:28;56801.06;;;-142.13;70.91
11712;BME280;5912;51.034;6.984;2024-01-27T02:31:54;56769.00;;;-142.13;71.09
11712;BME280;5912;51.034;6.984;2024-01-27T02:34:20;56785.03;;;-142.13;71.36
11712;BME280;5912;51.034;6.984;2024-01-27T02:36:45;56853.16;;;-142.13;71.56
11712;BME280;5912;51.034;6.984;2024-01-27T02:39:10;56787.03;;;-142.13;71.40
11712;BME280;5912;51.034;6.984;2024-01-27T02:41:36;56797.06;;;-142.13;71.75
11712;BME280;5912;51.034;6.984;2024-01-27T02:44:04;56779.03;;;-142.13;71.84
11712;BME280;5912;51.034;6.984;2024-01-27T02:46:30;56793.06;;;-142.13;71.93
11712;BME280;5912;51.034;6.984;2024-01-27T02:48:55;56777.03;;;-142.13;72.45
11712;BME280;5912;51.034;6.984;2024-01-27T02:51:20;56777.03;;;-142.13;71.63
11712;BME280;5912;51.034;6.984;2024-01-27T02:53:46;56785.03;;;-142.13;71.78
11712;BME280;5912;51.034;6.984;2024-01-27T02:56:11;56803.06;;;-142.13;71.79
11712;BME280;5912;51.034;6.984;2024-01-27T02:58:36;56773.00;;;-142.13;72.09
11712;BME280;5912;51.034;6.984;2024-01-27T03:01:02;56813.09;;;-142.13;71.60
11712;BME280;5912;51.034;6.984;2024-01-27T03:03:27;56765.00;;;-142.13;71.57
11712;BME280;5912;51.034;6.984;2024-01-27T03:05:54;56793.06;;;-142.13;71.59
11712;BME280;5912;51.034;6.984;2024-01-27T03:08:34;56785.03;;;-142.13;71.90
11712;BME280;5912;51.034;6.984;2024-01-27T03:11:00;56793.06;;;-142.13;71.68
11712;BME280;5912;51.034;6.984;2024-01-27T03:13:25;56795.06;;;-142.13;71.68
11712;BME280;5912;51.034;6.984;2024-01-27T03:15:50;56769.00;;;-142.13;71.28
11712;BME280;5912;51.034;6.984;2024-01-27T03:18:17;56783.03;;;-142.13;71.86
11712;BME280;5912;51.034;6.984;2024-01-27T03:20:43;56791.03;;;-142.13;71.99
11712;BME280;5912;51.034;6.984;2024-01-27T03:23:08;56783.03;;;-142.13;72.05
11712;BME280;5912;51.034;6.984;2024-01-27T03:25:34;56744.97;;;-142.13;71.58
11712;BME280;5912;51.034;6.984;2024-01-27T03:27:59;56765.00;;;-142.13;71.61
11712;BME280;5912;51.034;6.984;2024-01-27T03:30:26;56793.06;;;-142.13;71.12
11712;BME280;5912;51.034;6.984;2024-01-27T03:32:51;56773.00;;;-142.13;71.18
11712;BME280;5912;51.034;6.984;2024-01-27T03:35:16;56781.03;;;-142.13;71.21
11712;BME280;5912;51.034;6.984;2024-01-27T03:37:41;56797.06;;;-142.13;71.66
11712;BME280;5912;51.034;6.984;2024-01-27T03:40:07;56783.03;;;-142.13;71.28
11712;BME280;5912;51.034;6.984;2024-01-27T03:42:33;56801.06;;;-142.13;71.39
11712;BME280;5912;51.034;6.984;2024-01-27T03:44:58;56799.06;;;-142.13;71.17
11712;BME280;5912;51.034;6.984;2024-01-27T03:47:24;56787.03;;;-142.13;70.97
11712;BME280;5912;51.034;6.984;2024-01-27T03:49:49;56793.06;;;-142.13;71.07
11712;BME280;5912;51.034;6.984;2024-01-27T03:52:14;56781.03;;;-142.13;71.19
11712;BME280;5912;51.034;6.984;2024-01-27T03:54:40;56811.06;;;-142.13;70.95
11712;BME280;5912;51.034;6.984;2024-01-27T03:57:05;56754.97;;;-142.13;71.01
11712;BME280;5912;51.034;6.984;2024-01-27T03:59:31;56797.06;;;-142.13;70.94
11712;BME280;5912;51.034;6.984;2024-01-27T04:01:56;56738.97;;;-142.13;71.37
11712;BME280;5912;51.034;6.984;2024-01-27T04:04:21;56777.03;;;-142.13;71.19
11712;BME280;5912;51.034;6.984;2024-01-27T04:06:47;56793.06;;;-142.13;70.84
11712;BME280;5912;51.034;6.984;2024-01-27T04:09:12;56752.97;;;-142.13;70.58
11712;BME280;5912;51.034;6.984;2024-01-27T04:11:38;56744.97;;;-142.13;70.40
11712;BME280;5912;51.034;6.984;2024-01-27T04:14:05;56781.03;;;-142.13;70.50
11712;BME280;5912;51.034;6.984;2024-01-27T04:16:31;56773.00;;;-142.13;70.26
11712;BME280;5912;51.034;6.984;2024-01-27T04:18:57;56777.03;;;-142.13;70.45
11712;BME280;5912;51.034;6.984;2024-01-27T04:21:22;56801.06;;;-142.13;70.36
11712;BME280;5912;51.034;6.984;2024-01-27T04:23:48;56769.00;;;-142.13;70.65
11712;BME280;5912;51.034;6.984;2024-01-27T04:26:13;56851.16;;;-142.13;71.43
11712;BME280;5912;51.034;6.984;2024-01-27T04:28:39;56791.03;;;-142.13;70.94
11712;BME280;5912;51.034;6.984;2024-01-27T04:31:04;56787.03;;;-142.13;71.22
11712;BME280;5912;51.034;6.984;2024-01-27T04:33:30;56763.00;;;-142.13;70.58
11712;BME280;5912;51.034;6.984;2024-01-27T04:35:55;56779.03;;;-142.13;71.01
11712;BME280;5912;51.034;6.984;2024-01-27T04:38:20;56805.06;;;-142.13;71.30
11712;BME280;5912;51.034;6.984;2024-01-27T04:40:46;56785.03;;;-142.13;71.39
11712;BME280;5912;51.034;6.984;2024-01-27T04:43:18;56783.03;;;-142.13;71.61
11712;BME280;5912;51.034;6.984;2024-01-27T04:45:45;56710.91;;;-142.13;71.20
11712;BME280;5912;51.034;6.984;2024-01-27T04:48:10;56777.03;;;-142.13;71.10
11712;BME280;5912;51.034;6.984;2024-01-27T04:50:36;56803.06;;;-142.13;70.91
11712;BME280;5912;51.034;6.984;2024-01-27T04:53:01;56779.03;;;-142.13;70.79
11712;BME280;5912;51.034;6.984;2024-01-27T04:55:27;56777.03;;;-142.13;70.79
11712;BME280;5912;51.034;6.984;2024-01-27T04:57:53;56803.06;;;-142.13;70.42
11712;BME280;5912;51.034;6.984;2024-01-27T05:00:18;56777.03;;;-142.13;70.90
11712;BME280;5912;51.034;6.984;2024-01-27T05:02:45;56809.06;;;-142.13;70.73
11712;BME280;5912;51.034;6.984;2024-01-27T05:05:10;56754.97;;;-142.13;70.81
11712;BME280;5912;51.034;6.984;2024-01-27T05:07:37;56801.06;;;-142.13;70.45
11712;BME280;5912;51.034;6.984;2024-01-27T05:10:02;56833.13;;;-142.13;70.91
11712;BME280;5912;51.034;6.984;2024-01-27T05:12:28;56779.03;;;-142.13;70.86
11712;BME280;5912;51.034;6.984;2024-01-27T05:14:53;56809.06;;;-142.13;70.65
11712;BME280;5912;51.034;6.984;2024-01-27T05:17:19;56783.03;;;-142.13;70.11
11712;BME280;5912;51.034;6.984;2024-01-27T05:19:44;56785.03;;;-142.13;70.32
11712;BME280;5912;51.034;6.984;2024-01-27T05:22:09;56791.03;;;-142.13;71.28
11712;BME280;5912;51.034;6.984;2024-01-27T05:24:35;56907.25;;;-142.13;71.24
11712;BME280;5912;51.034;6.984;2024-01-27T05:27:00;56787.03;;;-142.13;71.69
11712;BME280;5912;51.034;6.984;2024-01-27T05:29:27;56809.06;;;-142.13;71.70
11712;BME280;5912;51.034;6.984;2024-01-27T05:31:53;56813.09;;;-142.13;71.71
11712;BME280;5912;51.034;6.984;2024-01-27T05:34:19;56807.06;;;-142.13;71.41
11712;BME280;5912;51.034;6.984;2024-01-27T05:36:44;56793.06;;;-142.13;71.74
11712;BME280;5912;51.034;6.984;2024-01-27T05:39:10;56799.06;;;-142.13;71.52
11712;BME280;5912;51.034;6.984;2024-01-27T05:41:35;56801.06;;;-142.13;71.61
11712;BME280;5912;51.034;6.984;2024-01-27T05:44:01;56787.03;;;-142.13;70.93
11712;BME280;5912;51.034;6.984;2024-01-27T05:46:27;56785.03;;;-142.13;71.17
11712;BME280;5912;51.034;6.984;2024-01-27T05:48:52;56817.09;;;-142.13;70.93
11712;BME280;5912;51.034;6.984;2024-01-27T05:51:19;56777.03;;;-142.13;70.79
11712;BME280;5912;51.034;6.984;2024-01-27T05:53:45;56793.06;;;-142.13;70.95
11712;BME280;5912;51.034;6.984;2024-01-27T05:56:11;56761.00;;;-142.13;71.27
11712;BME280;5912;51.034;6.984;2024-01-27T05:58:37;56805.06;;;-142.13;71.21
11712;BME280;5912;51.034;6.984;2024-01-27T06:01:02;56807.06;;;-142.13;71.33
11712;BME280;5912;51.034;6.984;2024-01-27T06:03:28;56775.03;;;-142.13;71.26
11712;BME280;5912;51.034;6.984;2024-01-27T06:05:53;56777.03;;;-142.13;71.09
11712;BME280;5912;51.034;6.984;2024-01-27T06:08:18;56837.13;;;-142.13;71.30
11712;BME280;5912;51.034;6.984;2024-01-27T06:10:45;56833.13;;;-142.13;71.54
11712;BME280;5912;51.034;6.984;2024-01-27T06:13:10;56793.06;;;-142.13;71.58
11712;BME280;5912;51.034;6.984;2024-01-27T06:15:36;56789.03;;;-142.13;71.67
11712;BME280;5912;51.034;6.984;2024-01-27T06:18:01;56801.06;;;-142.13;71.45
11712;BME280;5912;51.034;6.984;2024-01-27T06:20:26;56803.06;;;-142.13;71.45
11712;BME280;5912;51.034;6.984;2024-01-27T06:22:51;56809.06;;;-142.13;71.45
11712;BME280;5912;51.034;6.984;2024-01-27T06:25:20;56953.31;;;-142.13;72.08
11712;BME280;5912;51.034;6.984;2024-01-27T06:27:46;56797.06;;;-142.13;71.79
11712;BME280;5912;51.034;6.984;2024-01-27T06:30:12;56809.06;;;-142.13;71.89
11712;BME280;5912;51.034;6.984;2024-01-27T06:32:37;56781.03;;;-142.13;71.61
11712;BME280;5912;51.034;6.984;2024-01-27T06:35:03;56789.03;;;-142.13;71.37
11712;BME280;5912;51.034;6.984;2024-01-27T06:37:29;56817.09;;;-142.13;71.42
11712;BME280;5912;51.034;6.984;2024-01-27T06:39:55;56791.03;;;-142.13;71.79
11712;BME280;5912;51.034;6.984;2024-01-27T06:42:20;56801.06;;;-142.13;71.97
11712;BME280;5912;51.034;6.984;2024-01-27T06:44:45;56779.03;;;-142.13;71.34
11712;BME280;5912;51.034;6.984;2024-01-27T06:47:10;56785.03;;;-142.13;71.13
11712;BME280;5912;51.034;6.984;2024-01-27T06:49:36;56805.06;;;-142.13;70.96
11712;BME280;5912;51.034;6.984;2024-01-27T06:52:02;56829.09;;;-142.13;71.62
11712;BME280;5912;51.034;6.984;2024-01-27T06:54:27;56763.00;;;-142.13;71.17
11712;BME280;5912;51.034;6.984;2024-01-27T06:56:53;56973.34;;;-142.13;70.93
11712;BME280;5912;51.034;6.984;2024-01-27T06:59:18;56759.00;;;-142.13;70.63
11712;BME280;5912;51.034;6.984;2024-01-27T07:01:47;56791.03;;;-142.13;71.25
11712;BME280;5912;51.034;6.984;2024-01-27T07:04:16;56789.03;;;-142.13;70.59
11712;BME280;5912;51.034;6.984;2024-01-27T07:06:41;56769.00;;;-142.13;71.08
11712;BME280;5912;51.034;6.984;2024-01-27T07:09:06;56752.97;;;-142.13;70.79
11712;BME280;5912;51.034;6.984;2024-01-27T07:11:32;56787.03;;;-142.13;71.26
11712;BME280;5912;51.034;6.984;2024-01-27T07:13:57;56785.03;;;-142.13;70.70
11712;BME280;5912;51.034;6.984;2024-01-27T07:16:23;56809.06;;;-142.13;71.39
11712;BME280;5912;51.034;6.984;2024-01-27T07:18:50;56803.06;;;-142.13;71.17
11712;BME280;5912;51.034;6.984;2024-01-27T07:21:16;56807.06;;;-142.13;70.75
11712;BME280;5912;51.034;6.984;2024-01-27T07:23:42;56809.06;;;-142.13;70.35
11712;BME280;5912;51.034;6.984;2024-01-27T07:26:09;56763.00;;;-142.13;70.48
11712;BME280;5912;51.034;6.984;2024-01-27T07:28:34;56783.03;;;-142.13;70.32
11712;BME280;5912;51.034;6.984;2024-01-27T07:31:00;56787.03;;;-142.13;70.37
11712;BME280;5912;51.034;6.984;2024-01-27T07:33:25;56939.31;;;-142.13;70.25
11712;BME280;5912;51.034;6.984;2024-01-27T07:35:51;56799.06;;;-142.13;70.42
11712;BME280;5912;51.034;6.984;2024-01-27T07:38:16;56807.06;;;-142.13;70.88
11712;BME280;5912;51.034;6.984;2024-01-27T07:40:41;56805.06;;;-142.13;70.51
11712;BME280;5912;51.034;6.984;2024-01-27T07:43:07;56779.03;;;-142.13;70.62
11712;BME280;5912;51.034;6.984;2024-01-27T07:45:32;56793.06;;;-142.13;70.53
11712;BME280;5912;51.034;6.984;2024-01-27T07:47:58;56803.06;;;-142.13;70.16
11712;BME280;5912;51.034;6.984;2024-01-27T07:50:23;56759.00;;;-142.13;70.24
11712;BME280;5912;51.034;6.984;2024-01-27T07:52:48;56791.03;;;-142.13;69.85
11712;BME280;5912;51.034;6.984;2024-01-27T07:55:14;56781.03;;;-142.13;69.69
11712;BME280;5912;51.034;6.984;2024-01-27T07:57:39;56752.97;;;-142.13;69.53
11712;BME280;5912;51.034;6.984;2024-01-27T08:00:05;56811.06;;;-142.13;69.30
11712;BME280;5912;51.034;6.984;2024-01-27T08:02:31;56789.03;;;-142.13;69.48
11712;BME280;5912;51.034;6.984;2024-01-27T08:04:57;56748.97;;;-142.13;69.22
11712;BME280;5912;51.034;6.984;2024-01-27T08:07:23;56789.03;;;-142.13;69.56
11712;BME280;5912;51.034;6.984;2024-01-27T08:09:48;56759.00;;;-142.13;69.36
11712;BME280;5912;51.034;6.984;2024-01-27T08:12:35;56781.03;;;-142.13;69.48
11712;BME280;5912;51.034;6.984;2024-01-27T08:15:01;56783.03;;;-142.13;69.13
11712;BME280;5912;51.034;6.984;2024-01-27T08:17:26;56769.00;;;-142.13;69.25
11712;BME280;5912;51.034;6.984;2024-01-27T08:19:51;56781.03;;;-142.13;68.92
11712;BME280;5912;51.034;6.984;2024-01-27T08:22:17;56789.03;;;-142.13;68.96
11712;BME280;5912;51.034;6.984;2024-01-27T08:24:42;56791.03;;;-142.13;68.96
11712;BME280;5912;51.034;6.984;2024-01-27T08:27:08;56754.97;;;-142.13;68.71
11712;BME280;5912;51.034;6.984;2024-01-27T08:29:33;56771.00;;;-142.13;68.49
11712;BME280;5912;51.034;6.984;2024-01-27T08:31:58;56738.97;;;-142.13;68.49
11712;BME280;5912;51.034;6.984;2024-01-27T08:34:24;56783.03;;;-142.13;68.71
11712;BME280;5912;51.034;6.984;2024-01-27T08:36:49;56759.00;;;-142.13;69.01
11712;BME280;5912;51.034;6.984;2024-01-27T08:39:14;56728.94;;;-142.13;68.93
11712;BME280;5912;51.034;6.984;2024-01-27T08:41:39;56754.97;;;-142.13;68.17
11712;BME280;5912;51.034;6.984;2024-01-27T08:44:05;56736.94;;;-142.13;68.43
11712;BME280;5912;51.034;6.984;2024-01-27T08:46:30;56765.00;;;-142.13;67.65
11712;BME280;5912;51.034;6.984;2024-01-27T08:48:55;56761.00;;;-142.13;67.23
11712;BME280;5912;51.034;6.984;2024-01-27T08:51:21;56712.91;;;-142.13;66.98
11712;BME280;5912;51.034;6.984;2024-01-27T08:53:46;56708.91;;;-142.13;65.58
11712;BME280;5912;51.034;6.984;2024-01-27T08:56:17;56746.97;;;-142.13;64.54
11712;BME280;5912;51.034;6.984;2024-01-27T08:58:45;56712.91;;;-142.13;64.12
11712;BME280;5912;51.034;6.984;2024-01-27T09:01:12;56702.91;;;-142.13;63.89
11712;BME280;5912;51.034;6.984;2024-01-27T09:03:40;56730.94;;;-142.13;62.85
11712;BME280;5912;51.034;6.984;2024-01-27T09:06:08;56738.97;;;-142.13;63.04
11712;BME280;5912;51.034;6.984;2024-01-27T09:08:34;56722.94;;;-142.13;62.38
11712;BME280;5912;51.034;6.984;2024-01-27T09:11:01;56704.91;;;-142.13;62.09
11712;BME280;5912;51.034;6.984;2024-01-27T09:13:27;56728.94;;;-142.13;61.89
11712;BME280;5912;51.034;6.984;2024-01-27T09:15:52;56680.84;;;-142.13;61.83
11712;BME280;5912;51.034;6.984;2024-01-27T09:18:17;56686.88;;;-142.13;61.29
11712;BME280;5912;51.034;6.984;2024-01-27T09:20:43;56720.94;;;-142.13;60.62
11712;BME280;5912;51.034;6.984;2024-01-27T09:23:08;56718.91;;;-142.13;60.56
11712;BME280;5912;51.034;6.984;2024-01-27T09:25:33;56696.88;;;-142.13;59.49
11712;BME280;5912;51.034;6.984;2024-01-27T09:27:59;56674.84;;;-142.13;59.14
11712;BME280;5912;51.034;6.984;2024-01-27T09:30:26;56658.81;;;-142.13;58.77
11712;BME280;5912;51.034;6.984;2024-01-27T09:32:52;56708.91;;;-142.13;58.78
11712;BME280;5912;51.034;6.984;2024-01-27T09:35:17;56684.88;;;-142.13;59.70
11712;BME280;5912;51.034;6.984;2024-01-27T09:37:43;56773.00;;;-142.13;60.01
11712;BME280;5912;51.034;6.984;2024-01-27T09:40:10;56704.91;;;-142.13;60.96
11712;BME280;5912;51.034;6.984;2024-01-27T09:42:37;56692.88;;;-142.13;60.58
11712;BME280;5912;51.034;6.984;2024-01-27T09:45:04;56694.88;;;-142.13;62.02
11712;BME280;5912;51.034;6.984;2024-01-27T09:47:30;56656.81;;;-142.13;60.52
11712;BME280;5912;51.034;6.984;2024-01-27T09:49:55;56666.84;;;-142.13;58.98
11712;BME280;5912;51.034;6.984;2024-01-27T09:52:21;56626.78;;;-142.13;57.28
11712;BME280;5912;51.034;6.984;2024-01-27T09:54:46;56636.78;;;-142.13;55.65
11712;BME280;5912;51.034;6.984;2024-01-27T09:57:12;56640.78;;;-142.13;52.97
11712;BME280;5912;51.034;6.984;2024-01-27T09:59:40;56636.78;;;-142.13;52.84
11712;BME280;5912;51.034;6.984;2024-01-27T10:02:11;56648.81;;;-142.13;52.85
11712;BME280;5912;51.034;6.984;2024-01-27T10:04:38;56562.66;;;-142.13;52.54
11712;BME280;5912;51.034;6.984;2024-01-27T10:07:03;56618.75;;;-142.13;50.85
11712;BME280;5912;51.034;6.984;2024-01-27T10:09:29;56620.75;;;-142.13;51.13
11712;BME280;5912;51.034;6.984;2024-01-27T10:11:55;56604.72;;;-142.13;50.34
11712;BME280;5912;51.034;6.984;2024-01-27T10:14:21;56612.75;;;-142.13;50.26
11712;BME280;5912;51.034;6.984;2024-01-27T10:16:46;56576.69;;;-142.13;50.05
11712;BME280;5912;51.034;6.984;2024-01-27T10:19:16;56566.66;;;-142.13;48.71
11712;BME280;5912;51.034;6.984;2024-01-27T10:21:43;56528.59;;;-142.13;47.43
11712;BME280;5912;51.034;6.984;2024-01-27T10:24:09;56536.63;;;-142.13;45.26
11712;BME280;5912;51.034;6.984;2024-01-27T10:26:34;56546.63;;;-142.13;44.93
11712;BME280;5912;51.034;6.984;2024-01-27T10:29:00;56532.63;;;-142.13;44.11
11712;BME280;5912;51.034;6.984;2024-01-27T10:31:31;56524.59;;;-142.13;41.92
11712;BME280;5912;51.034;6.984;2024-01-27T10:33:57;56496.56;;;-142.13;42.42
11712;BME280;5912;51.034;6.984;2024-01-27T10:36:23;56516.59;;;-142.13;42.24
11712;BME280;5912;51.034;6.984;2024-01-27T10:38:49;56508.56;;;-142.13;42.09
11712;BME280;5912;51.034;6.984;2024-01-27T10:41:24;56484.53;;;-142.13;41.94
11712;BME280;5912;51.034;6.984;2024-01-27T10:43:51;56496.56;;;-142.13;41.15
11712;BME280;5912;51.034;6.984;2024-01-27T10:46:19;56468.50;;;-142.13;40.38
11712;BME280;5912;51.034;6.984;2024-01-27T10:48:49;56500.56;;;-142.13;40.56
11712;BME280;5912;51.034;6.984;2024-01-27T10:51:17;56478.53;;;-142.13;40.62
11712;BME280;5912;51.034;6.984;2024-01-27T10:53:45;56474.53;;;-142.13;41.05
11712;BME280;5912;51.034;6.984;2024-01-27T10:56:14;56482.53;;;-142.13;39.77
11712;BME280;5912;51.034;6.984;2024-01-27T10:58:40;56488.53;;;-142.13;39.77
11712;BME280;5912;51.034;6.984;2024-01-27T11:01:11;56496.56;;;-142.13;39.45
11712;BME280;5912;51.034;6.984;2024-01-27T11:03:40;56456.50;;;-142.13;39.73
11712;BME280;5912;51.034;6.984;2024-01-27T11:06:06;56474.53;;;-142.13;39.48
11712;BME280;5912;51.034;6.984;2024-01-27T11:08:33;56488.53;;;-142.13;38.60
11712;BME280;5912;51.034;6.984;2024-01-27T11:11:02;56448.47;;;-142.13;38.66
11712;BME280;5912;51.034;6.984;2024-01-27T11:13:32;56454.47;;;-142.13;39.34
11712;BME280;5912;51.034;6.984;2024-01-27T11:15:58;56490.53;;;-142.13;37.92
11712;BME280;5912;51.034;6.984;2024-01-27T11:18:24;56464.50;;;-142.13;38.62
11712;BME280;5912;51.034;6.984;2024-01-27T11:20:59;56466.50;;;-142.13;39.01
11712;BME280;5912;51.034;6.984;2024-01-27T11:23:35;56492.53;;;-142.13;39.77
11712;BME280;5912;51.034;6.984;2024-01-27T11:26:08;56500.56;;;-142.13;39.92
11712;BME280;5912;51.034;6.984;2024-01-27T11:31:45;56488.53;;;-142.13;39.58
11712;BME280;5912;51.034;6.984;2024-01-27T11:34:11;56502.56;;;-142.13;39.56
11712;BME280;5912;51.034;6.984;2024-01-27T11:36:43;56470.50;;;-142.13;38.23
11712;BME280;5912;51.034;6.984;2024-01-27T11:39:30;56490.53;;;-142.13;39.05
11712;BME280;5912;51.034;6.984;2024-01-27T11:42:10;56466.50;;;-142.13;38.33
11712;BME280;5912;51.034;6.984;2024-01-27T11:44:39;56454.47;;;-142.13;38.69
11712;BME280;5912;51.034;6.984;2024-01-27T11:47:08;56484.53;;;-142.13;38.42
11712;BME280;5912;51.034;6.984;2024-01-27T11:49:38;56486.53;;;-142.13;38.45
11712;BME280;5912;51.034;6.984;2024-01-27T11:52:06;56448.47;;;-142.13;38.34
11712;BME280;5912;51.034;6.984;2024-01-27T11:54:31;56440.47;;;-142.13;38.01
11712;BME280;5912;51.034;6.984;2024-01-27T11:56:57;56428.44;;;-142.13;37.38
11712;BME280;5912;51.034;6.984;2024-01-27T11:59:22;56456.50;;;-142.13;37.12
11712;BME280;5912;51.034;6.984;2024-01-27T12:01:48;56420.44;;;-142.13;36.41
11712;BME280;5912;51.034;6.984;2024-01-27T12:04:14;56386.38;;;-142.13;37.25
11712;BME280;5912;51.034;6.984;2024-01-27T12:06:40;56406.41;;;-142.13;36.00
11712;BME280;5912;51.034;6.984;2024-01-27T12:09:06;56404.41;;;-142.13;35.35
11712;BME280;5912;51.034;6.984;2024-01-27T12:11:38;56372.34;;;-142.13;35.33
11712;BME280;5912;51.034;6.984;2024-01-27T12:14:04;56378.38;;;-142.13;35.23
11712;BME280;5912;51.034;6.984;2024-01-27T12:16:29;56370.34;;;-142.13;35.23
11712;BME280;5912;51.034;6.984;2024-01-27T12:18:55;56388.38;;;-142.13;34.79
11712;BME280;5912;51.034;6.984;2024-01-27T12:21:20;56364.34;;;-142.13;33.73
11712;BME280;5912;51.034;6.984;2024-01-27T12:23:53;56388.38;;;-142.13;34.11
11712;BME280;5912;51.034;6.984;2024-01-27T12:26:21;56402.41;;;-142.13;34.81
11712;BME280;5912;51.034;6.984;2024-01-27T12:28:47;56444.47;;;-142.13;35.06
11712;BME280;5912;51.034;6.984;2024-01-27T12:31:15;56414.41;;;-142.13;36.02
11712;BME280;5912;51.034;6.984;2024-01-27T12:33:51;56446.47;;;-142.13;36.60
11712;BME280;5912;51.034;6.984;2024-01-27T12:36:20;56446.47;;;-142.13;37.60
11712;BME280;5912;51.034;6.984;2024-01-27T12:39:00;56468.50;;;-142.13;38.02
11712;BME280;5912;51.034;6.984;2024-01-27T12:41:26;56482.53;;;-142.13;37.92
11712;BME280;5912;51.034;6.984;2024-01-27T12:43:52;56492.53;;;-142.13;38.60
11712;BME280;5912;51.034;6.984;2024-01-27T12:46:18;56524.59;;;-142.13;38.60
11712;BME280;5912;51.034;6.984;2024-01-27T12:48:44;56480.53;;;-142.13;39.10